PWSweather.com
Personal Weather Stations
Station Observations
FAUSKE
Nordland, Norway, FauskeNO 8200

Nordland, NorwayFauskeNO 8200

Lat: 67.2607586, Lon: 15.4114204

Elevation: 40

Station Type: Davis Vantage PRO2

http://www.bjornli.net/weather.html

Latest ConditionsUpdated 7:10:00 PM GMT+01:01 Tuesday, Nov 12, 2019
Currently Today's Max Today's Min Today's Average
Temperature 31.3°F-0.4°C 31.3°F-0.4°C 25.9°F-3.4°C 28.4°F-2.0°C
Dew Point 22.7°F-5.2°C 24.1°F-4.4°C 17.8°F-7.9°C 20.5°F-6.4°C
Winds 34.0 mph SE54.7 kmh SE 34.0 mph -54.7 kmh - - 12.2 mph 19.6 kmh
Wind Gusts 36.0 mph57.9 kmh 36.0 mph57.9 kmh - -
Humidity 70% 79% 68% 72%
Pressure 29.67 in1004.7 mb 29.83 in1010.2 mb 29.67 in1004.7 mb -
Hour Temp Dew Point Humidity Winds Wind Gusts Pressure Precip Precip Rate Daily Precip Total
07:10 PM 31.3°F-0.4°C 22.7°F-5.2°C 70% 34.0 mph SE54.7 kmh SE 36.0 mph57.9 kmh 29.67 in1004.7 mb 0.00 in0.0 mm 0.00 in0.0 mm 0.01 in0.3 mm
07:00 PM 30.4°F-0.9°C 21.8°F-5.7°C 70% 19.0 mph ESE30.6 kmh ESE 19.0 mph30.6 kmh 29.67 in1004.7 mb 0.00 in0.0 mm 0.00 in0.0 mm 0.01 in0.3 mm
06:40 PM 30.1°F-1.1°C 21.9°F-5.6°C 71% 15.0 mph E24.1 kmh E 29.0 mph46.7 kmh 29.68 in1005.1 mb 0.00 in0.0 mm 0.00 in0.0 mm 0.01 in0.3 mm
06:30 PM 30.1°F-1.1°C 21.5°F-5.8°C 70% 29.0 mph SE46.7 kmh SE 29.0 mph46.7 kmh 29.68 in1005.1 mb 0.00 in0.0 mm 0.00 in0.0 mm 0.01 in0.3 mm
06:10 PM 30.0°F-1.1°C 21.4°F-5.9°C 70% 18.0 mph SE29.0 kmh SE 23.0 mph37.0 kmh 29.69 in1005.4 mb 0.00 in0.0 mm 0.00 in0.0 mm 0.01 in0.3 mm
06:00 PM 30.0°F-1.1°C 21.4°F-5.9°C 70% 15.0 mph E24.1 kmh E 19.0 mph30.6 kmh 29.69 in1005.4 mb 0.00 in0.0 mm 0.00 in0.0 mm 0.01 in0.3 mm
05:40 PM 30.2°F-1.0°C 21.6°F-5.8°C 70% 22.0 mph SE35.4 kmh SE 26.0 mph41.8 kmh 29.69 in1005.4 mb 0.00 in0.0 mm 0.00 in0.0 mm 0.01 in0.3 mm
05:30 PM 30.0°F-1.1°C 21.4°F-5.9°C 70% 21.0 mph SE33.8 kmh SE 21.0 mph33.8 kmh 29.69 in1005.4 mb 0.00 in0.0 mm 0.00 in0.0 mm 0.01 in0.3 mm
05:10 PM 30.2°F-1.0°C 21.6°F-5.8°C 70% 18.0 mph SE29.0 kmh SE 26.0 mph41.8 kmh 29.69 in1005.4 mb 0.00 in0.0 mm 0.00 in0.0 mm 0.01 in0.3 mm
05:00 PM 30.1°F-1.1°C 21.5°F-5.8°C 70% 18.0 mph SE29.0 kmh SE 24.0 mph38.6 kmh 29.69 in1005.4 mb 0.00 in0.0 mm 0.00 in0.0 mm 0.01 in0.3 mm
04:40 PM 29.9°F-1.2°C 21.7°F-5.7°C 71% 17.0 mph SE27.4 kmh SE 26.0 mph41.8 kmh 29.69 in1005.4 mb 0.00 in0.0 mm 0.00 in0.0 mm 0.01 in0.3 mm
04:30 PM 29.7°F-1.3°C 21.8°F-5.7°C 72% 17.0 mph SE27.4 kmh SE 19.0 mph30.6 kmh 29.69 in1005.4 mb 0.00 in0.0 mm 0.00 in0.0 mm 0.01 in0.3 mm
04:10 PM 29.9°F-1.2°C 22.6°F-5.2°C 74% 17.0 mph SE27.4 kmh SE 19.0 mph30.6 kmh 29.71 in1006.1 mb 0.00 in0.0 mm 0.00 in0.0 mm 0.01 in0.3 mm
04:00 PM 30.1°F-1.1°C 22.8°F-5.1°C 74% 7.0 mph ESE11.3 kmh ESE 17.0 mph27.4 kmh 29.71 in1006.1 mb 0.00 in0.0 mm 0.00 in0.0 mm 0.01 in0.3 mm
03:40 PM 30.2°F-1.0°C 22.6°F-5.2°C 73% 11.0 mph SSE17.7 kmh SSE 19.0 mph30.6 kmh 29.71 in1006.1 mb 0.00 in0.0 mm 0.00 in0.0 mm 0.01 in0.3 mm
03:30 PM 30.5°F-0.8°C 23.2°F-4.9°C 74% 11.0 mph SSE17.7 kmh SSE 12.0 mph19.3 kmh 29.72 in1006.4 mb 0.00 in0.0 mm 0.00 in0.0 mm 0.01 in0.3 mm
03:10 PM 30.6°F-0.8°C 22.7°F-5.2°C 72% 14.0 mph SE22.5 kmh SE 26.0 mph41.8 kmh 29.72 in1006.4 mb 0.00 in0.0 mm 0.00 in0.0 mm 0.01 in0.3 mm
03:00 PM 30.7°F-0.7°C 23.1°F-4.9°C 73% 19.0 mph SE30.6 kmh SE 19.0 mph30.6 kmh 29.71 in1006.1 mb 0.00 in0.0 mm 0.00 in0.0 mm 0.01 in0.3 mm
02:40 PM 30.5°F-0.8°C 23.2°F-4.9°C 74% 15.0 mph SE24.1 kmh SE 26.0 mph41.8 kmh 29.71 in1006.1 mb 0.00 in0.0 mm 0.00 in0.0 mm 0.01 in0.3 mm
02:30 PM 30.2°F-1.0°C 23.6°F-4.7°C 76% 14.0 mph SE22.5 kmh SE 16.0 mph25.7 kmh 29.71 in1006.1 mb 0.00 in0.0 mm 0.00 in0.0 mm 0.01 in0.3 mm
02:10 PM 30.1°F-1.1°C 24.1°F-4.4°C 78% 12.0 mph SE19.3 kmh SE 27.0 mph43.5 kmh 29.71 in1006.1 mb 0.00 in0.0 mm 0.00 in0.0 mm 0.01 in0.3 mm
02:00 PM 30.0°F-1.1°C 24.0°F-4.4°C 78% 13.0 mph SSE20.9 kmh SSE 19.0 mph30.6 kmh 29.71 in1006.1 mb 0.00 in0.0 mm 0.00 in0.0 mm 0.01 in0.3 mm
01:40 PM 29.6°F-1.3°C 23.9°F-4.5°C 79% 18.0 mph S29.0 kmh S 28.0 mph45.1 kmh 29.71 in1006.1 mb 0.00 in0.0 mm 0.00 in0.0 mm 0.01 in0.3 mm
01:30 PM 29.6°F-1.3°C 23.9°F-4.5°C 79% 21.0 mph SE33.8 kmh SE 21.0 mph33.8 kmh 29.71 in1006.1 mb 0.00 in0.0 mm 0.00 in0.0 mm 0.01 in0.3 mm
01:10 PM 29.1°F-1.6°C 23.4°F-4.8°C 79% 10.0 mph SE16.1 kmh SE 30.0 mph48.3 kmh 29.72 in1006.4 mb 0.00 in0.0 mm 0.00 in0.0 mm 0.01 in0.3 mm
01:00 PM 29.0°F-1.7°C 23.3°F-4.8°C 79% 21.0 mph S33.8 kmh S 30.0 mph48.3 kmh 29.72 in1006.4 mb 0.00 in0.0 mm 0.00 in0.0 mm 0.01 in0.3 mm
12:40 PM 29.2°F-1.6°C 22.9°F-5.1°C 77% 15.0 mph SE24.1 kmh SE 34.0 mph54.7 kmh 29.72 in1006.4 mb 0.00 in0.0 mm 0.00 in0.0 mm 0.01 in0.3 mm
12:30 PM 28.9°F-1.7°C 22.3°F-5.4°C 76% 20.0 mph SE32.2 kmh SE 28.0 mph45.1 kmh 29.72 in1006.4 mb 0.00 in0.0 mm 0.00 in0.0 mm 0.01 in0.3 mm
12:10 PM 28.8°F-1.8°C 20.9°F-6.2°C 72% 17.0 mph SSE27.4 kmh SSE 27.0 mph43.5 kmh 29.72 in1006.4 mb 0.00 in0.0 mm 0.00 in0.0 mm 0.01 in0.3 mm
12:00 PM 28.7°F-1.8°C 20.8°F-6.2°C 72% 7.0 mph SSE11.3 kmh SSE 12.0 mph19.3 kmh 29.72 in1006.4 mb 0.00 in0.0 mm 0.00 in0.0 mm 0.01 in0.3 mm
11:40 AM 28.6°F-1.9°C 20.1°F-6.6°C 70% 20.0 mph SE32.2 kmh SE 28.0 mph45.1 kmh 29.75 in1007.5 mb 0.01 in0.3 mm 0.00 in0.0 mm 0.01 in0.3 mm
11:30 AM 28.6°F-1.9°C 20.4°F-6.4°C 71% 11.0 mph SE17.7 kmh SE 13.0 mph20.9 kmh 29.74 in1007.1 mb 0.01 in0.3 mm 0.00 in0.0 mm 0.01 in0.3 mm
11:10 AM 28.7°F-1.8°C 20.2°F-6.6°C 70% 19.0 mph SE30.6 kmh SE 28.0 mph45.1 kmh 29.76 in1007.8 mb 0.01 in0.3 mm 0.00 in0.0 mm 0.01 in0.3 mm
11:00 AM 28.7°F-1.8°C 20.5°F-6.4°C 71% 17.0 mph SE27.4 kmh SE 17.0 mph27.4 kmh 29.75 in1007.5 mb 0.01 in0.3 mm 0.00 in0.0 mm 0.01 in0.3 mm
10:40 AM 28.3°F-2.1°C 20.1°F-6.6°C 71% 12.0 mph SE19.3 kmh SE 23.0 mph37.0 kmh 29.76 in1007.8 mb 0.01 in0.3 mm 0.06 in1.5 mm 0.01 in0.3 mm
10:30 AM 27.9°F-2.3°C 20.4°F-6.4°C 73% 17.0 mph SE27.4 kmh SE 17.0 mph27.4 kmh 29.76 in1007.8 mb 0.00 in0.0 mm 0.00 in0.0 mm 0.00 in0.0 mm
10:10 AM 27.6°F-2.4°C 20.1°F-6.6°C 73% 11.0 mph SE17.7 kmh SE 25.0 mph40.2 kmh 29.76 in1007.8 mb 0.00 in0.0 mm 0.00 in0.0 mm 0.00 in0.0 mm
10:00 AM 27.6°F-2.4°C 19.8°F-6.8°C 72% 17.0 mph SE27.4 kmh SE 18.0 mph29.0 kmh 29.77 in1008.1 mb 0.00 in0.0 mm 0.00 in0.0 mm 0.00 in0.0 mm
09:40 AM 27.8°F-2.3°C 19.6°F-6.9°C 71% 3.0 mph E4.8 kmh E 19.0 mph30.6 kmh 29.78 in1008.5 mb 0.00 in0.0 mm 0.00 in0.0 mm 0.00 in0.0 mm
09:30 AM 27.9°F-2.3°C 19.7°F-6.8°C 71% 9.0 mph SE14.5 kmh SE 10.0 mph16.1 kmh 29.77 in1008.1 mb 0.00 in0.0 mm 0.00 in0.0 mm 0.00 in0.0 mm
09:10 AM 28.1°F-2.2°C 19.6°F-6.9°C 70% Calm Calm 14.0 mph22.5 kmh 29.78 in1008.5 mb 0.00 in0.0 mm 0.00 in0.0 mm 0.00 in0.0 mm
09:00 AM 28.0°F-2.2°C 19.8°F-6.8°C 71% 3.0 mph ESE4.8 kmh ESE 11.0 mph17.7 kmh 29.78 in1008.5 mb 0.00 in0.0 mm 0.00 in0.0 mm 0.00 in0.0 mm
08:40 AM 28.0°F-2.2°C 20.2°F-6.6°C 72% 16.0 mph E25.7 kmh E 20.0 mph32.2 kmh 29.78 in1008.5 mb 0.00 in0.0 mm 0.00 in0.0 mm 0.00 in0.0 mm
08:30 AM 27.9°F-2.3°C 20.1°F-6.6°C 72% 8.0 mph E12.9 kmh E 12.0 mph19.3 kmh 29.78 in1008.5 mb 0.00 in0.0 mm 0.00 in0.0 mm 0.00 in0.0 mm
08:10 AM 27.6°F-2.4°C 20.1°F-6.6°C 73% 14.0 mph ESE22.5 kmh ESE 19.0 mph30.6 kmh 29.78 in1008.5 mb 0.00 in0.0 mm 0.00 in0.0 mm 0.00 in0.0 mm
08:00 AM 27.6°F-2.4°C 20.1°F-6.6°C 73% 18.0 mph SE29.0 kmh SE 18.0 mph29.0 kmh 29.78 in1008.5 mb 0.00 in0.0 mm 0.00 in0.0 mm 0.00 in0.0 mm
07:50 AM 27.5°F-2.5°C 20.0°F-6.7°C 73% 6.0 mph E9.7 kmh E 27.0 mph43.5 kmh 29.78 in1008.5 mb 0.00 in0.0 mm 0.00 in0.0 mm 0.00 in0.0 mm
07:40 AM 27.7°F-2.4°C 19.9°F-6.7°C 72% 12.0 mph SE19.3 kmh SE 25.0 mph40.2 kmh 29.77 in1008.1 mb 0.00 in0.0 mm 0.00 in0.0 mm 0.00 in0.0 mm
07:30 AM 27.7°F-2.4°C 19.5°F-6.9°C 71% 17.0 mph SE27.4 kmh SE 22.0 mph35.4 kmh 29.78 in1008.5 mb 0.00 in0.0 mm 0.00 in0.0 mm 0.00 in0.0 mm
07:10 AM 28.4°F-2.0°C 19.9°F-6.7°C 70% 14.0 mph SE22.5 kmh SE 20.0 mph32.2 kmh 29.77 in1008.1 mb 0.00 in0.0 mm 0.00 in0.0 mm 0.00 in0.0 mm
07:00 AM 28.1°F-2.2°C 18.9°F-7.3°C 68% 3.0 mph SE4.8 kmh SE 7.0 mph11.3 kmh 29.77 in1008.1 mb 0.00 in0.0 mm 0.00 in0.0 mm 0.00 in0.0 mm
06:39 AM 28.2°F-2.1°C 19.4°F-7.0°C 69% 10.0 mph ESE16.1 kmh ESE 20.0 mph32.2 kmh 29.76 in1007.8 mb 0.00 in0.0 mm 0.00 in0.0 mm 0.00 in0.0 mm
06:30 AM 28.2°F-2.1°C 19.7°F-6.8°C 70% 13.0 mph SE20.9 kmh SE 15.0 mph24.1 kmh 29.77 in1008.1 mb 0.00 in0.0 mm 0.00 in0.0 mm 0.00 in0.0 mm
06:10 AM 28.0°F-2.2°C 19.5°F-6.9°C 70% 17.0 mph E27.4 kmh E 21.0 mph33.8 kmh 29.77 in1008.1 mb 0.00 in0.0 mm 0.00 in0.0 mm 0.00 in0.0 mm
06:00 AM 27.9°F-2.3°C 19.1°F-7.2°C 69% 9.0 mph SE14.5 kmh SE 14.0 mph22.5 kmh 29.77 in1008.1 mb 0.00 in0.0 mm 0.00 in0.0 mm 0.00 in0.0 mm
05:40 AM 27.8°F-2.3°C 18.6°F-7.4°C 68% 11.0 mph SE17.7 kmh SE 20.0 mph32.2 kmh 29.77 in1008.1 mb 0.00 in0.0 mm 0.00 in0.0 mm 0.00 in0.0 mm
05:30 AM 28.0°F-2.2°C 19.2°F-7.1°C 69% 10.0 mph ESE16.1 kmh ESE 11.0 mph17.7 kmh 29.78 in1008.5 mb 0.00 in0.0 mm 0.00 in0.0 mm 0.00 in0.0 mm
05:10 AM 27.9°F-2.3°C 19.4°F-7.0°C 70% 4.0 mph SE6.4 kmh SE 19.0 mph30.6 kmh 29.78 in1008.5 mb 0.00 in0.0 mm 0.00 in0.0 mm 0.00 in0.0 mm
05:00 AM 27.7°F-2.4°C 18.9°F-7.3°C 69% 14.0 mph SE22.5 kmh SE 14.0 mph22.5 kmh 29.78 in1008.5 mb 0.00 in0.0 mm 0.00 in0.0 mm 0.00 in0.0 mm
04:40 AM 28.3°F-2.1°C 19.5°F-6.9°C 69% 7.0 mph SE11.3 kmh SE 16.0 mph25.7 kmh 29.79 in1008.8 mb 0.00 in0.0 mm 0.00 in0.0 mm 0.00 in0.0 mm
04:30 AM 28.0°F-2.2°C 18.8°F-7.3°C 68% 7.0 mph SE11.3 kmh SE 7.0 mph11.3 kmh 29.79 in1008.8 mb 0.00 in0.0 mm 0.00 in0.0 mm 0.00 in0.0 mm
04:10 AM 27.9°F-2.3°C 19.7°F-6.8°C 71% 6.0 mph SE9.7 kmh SE 19.0 mph30.6 kmh 29.79 in1008.8 mb 0.00 in0.0 mm 0.00 in0.0 mm 0.00 in0.0 mm
04:00 AM 27.4°F-2.6°C 19.6°F-6.9°C 72% 14.0 mph SE22.5 kmh SE 16.0 mph25.7 kmh 29.79 in1008.8 mb 0.00 in0.0 mm 0.00 in0.0 mm 0.00 in0.0 mm
03:40 AM 26.7°F-2.9°C 18.9°F-7.3°C 72% 10.0 mph SE16.1 kmh SE 10.0 mph16.1 kmh 29.80 in1009.1 mb 0.00 in0.0 mm 0.00 in0.0 mm 0.00 in0.0 mm
03:30 AM 26.8°F-2.9°C 19.0°F-7.2°C 72% Calm Calm -- 29.80 in1009.1 mb 0.00 in0.0 mm 0.00 in0.0 mm 0.00 in0.0 mm
03:09 AM 26.1°F-3.3°C 19.0°F-7.2°C 74% 6.0 mph S9.7 kmh S 13.0 mph20.9 kmh 29.81 in1009.5 mb 0.00 in0.0 mm 0.00 in0.0 mm 0.00 in0.0 mm
03:00 AM 26.1°F-3.3°C 18.6°F-7.4°C 73% 1.0 mph S1.6 kmh S 7.0 mph11.3 kmh 29.81 in1009.5 mb 0.00 in0.0 mm 0.00 in0.0 mm 0.00 in0.0 mm
02:40 AM 26.2°F-3.2°C 18.7°F-7.4°C 73% 4.0 mph S6.4 kmh S 8.0 mph12.9 kmh 29.81 in1009.5 mb 0.00 in0.0 mm 0.00 in0.0 mm 0.00 in0.0 mm
02:30 AM 26.6°F-3.0°C 18.5°F-7.5°C 71% 5.0 mph SSW8.0 kmh SSW 7.0 mph11.3 kmh 29.81 in1009.5 mb 0.00 in0.0 mm 0.00 in0.0 mm 0.00 in0.0 mm
02:10 AM 26.3°F-3.2°C 18.2°F-7.7°C 71% Calm Calm 10.0 mph16.1 kmh 29.82 in1009.8 mb 0.00 in0.0 mm 0.00 in0.0 mm 0.00 in0.0 mm
02:00 AM 26.7°F-2.9°C 18.3°F-7.6°C 70% Calm Calm -- 29.82 in1009.8 mb 0.00 in0.0 mm 0.00 in0.0 mm 0.00 in0.0 mm
01:40 AM 26.9°F-2.8°C 18.4°F-7.6°C 70% 10.0 mph SSE16.1 kmh SSE 14.0 mph22.5 kmh 29.82 in1009.8 mb 0.00 in0.0 mm 0.00 in0.0 mm 0.00 in0.0 mm
01:30 AM 26.9°F-2.8°C 18.4°F-7.6°C 70% 5.0 mph SSE8.0 kmh SSE 5.0 mph8.0 kmh 29.82 in1009.8 mb 0.00 in0.0 mm 0.00 in0.0 mm 0.00 in0.0 mm
01:09 AM 26.5°F-3.1°C 18.4°F-7.6°C 71% 7.0 mph S11.3 kmh S 11.0 mph17.7 kmh 29.83 in1010.2 mb 0.00 in0.0 mm 0.00 in0.0 mm 0.00 in0.0 mm
01:00 AM 25.9°F-3.4°C 17.8°F-7.9°C 71% 7.0 mph SSE11.3 kmh SSE 10.0 mph16.1 kmh 29.83 in1010.2 mb 0.00 in0.0 mm 0.00 in0.0 mm 0.00 in0.0 mm
12:40 AM 26.4°F-3.1°C 18.3°F-7.6°C 71% 6.0 mph SE9.7 kmh SE 10.0 mph16.1 kmh 29.83 in1010.2 mb 0.00 in0.0 mm 0.00 in0.0 mm 0.00 in0.0 mm
12:30 AM 26.7°F-2.9°C 17.9°F-7.8°C 69% 6.0 mph SSE9.7 kmh SSE 7.0 mph11.3 kmh 29.83 in1010.2 mb 0.00 in0.0 mm 0.00 in0.0 mm 0.00 in0.0 mm
12:10 AM 26.4°F-3.1°C 18.3°F-7.6°C 71% 11.0 mph SSE17.7 kmh SSE 16.0 mph25.7 kmh 29.83 in1010.2 mb 0.00 in0.0 mm 0.00 in0.0 mm 0.00 in0.0 mm
12:00 AM 26.4°F-3.1°C 18.3°F-7.6°C 71% 10.0 mph S16.1 kmh S 12.0 mph19.3 kmh 29.83 in1010.2 mb 0.00 in0.0 mm 0.00 in0.0 mm 0.00 in0.0 mm